createdAt,value
2016-12-04T00:00:18.773Z,20.83
2016-12-04T00:00:59.285Z,20.8
2016-12-04T00:01:39.852Z,20.8
2016-12-04T00:02:20.335Z,20.8
2016-12-04T00:03:00.889Z,20.77
2016-12-04T00:03:41.397Z,20.8
2016-12-04T00:04:21.933Z,20.85
2016-12-04T00:05:02.460Z,20.75
2016-12-04T00:05:43.027Z,20.83
2016-12-04T00:06:23.561Z,20.88
2016-12-04T00:07:04.105Z,20.85
2016-12-04T00:07:44.611Z,20.82
2016-12-04T00:08:25.136Z,20.82
2016-12-04T00:09:05.679Z,20.8
2016-12-04T00:09:46.163Z,20.82
2016-12-04T00:10:26.691Z,20.86
2016-12-04T00:11:07.237Z,20.73
2016-12-04T00:11:47.789Z,20.8
2016-12-04T00:12:28.315Z,20.83
2016-12-04T00:13:08.883Z,20.83
2016-12-04T00:13:49.410Z,20.78
2016-12-04T00:14:30.011Z,20.75
2016-12-04T00:15:10.570Z,20.77
2016-12-04T00:15:51.140Z,20.78
2016-12-04T00:16:31.668Z,20.8
2016-12-04T00:17:12.195Z,20.8
2016-12-04T00:17:52.687Z,20.77
2016-12-04T00:18:33.222Z,20.8
2016-12-04T00:19:13.758Z,20.8
2016-12-04T00:19:54.282Z,20.77
2016-12-04T00:20:34.827Z,20.8
2016-12-04T00:21:15.337Z,20.77
2016-12-04T00:21:55.911Z,20.73
2016-12-04T00:22:36.439Z,20.78
2016-12-04T00:23:16.966Z,20.74
2016-12-04T00:23:57.487Z,20.74
2016-12-04T00:24:38.026Z,20.78
2016-12-04T00:25:18.543Z,20.73
2016-12-04T00:25:59.087Z,20.8
2016-12-04T00:26:39.600Z,20.77
2016-12-04T00:27:20.120Z,20.74
2016-12-04T00:28:00.633Z,20.83
2016-12-04T00:28:41.146Z,20.77
2016-12-04T00:29:21.677Z,20.82
2016-12-04T00:30:02.218Z,20.77
2016-12-04T00:30:42.743Z,20.78
2016-12-04T00:31:23.266Z,20.83
2016-12-04T00:32:03.817Z,20.83
2016-12-04T00:32:44.342Z,20.8
2016-12-04T00:33:24.907Z,20.82
2016-12-04T00:34:05.455Z,20.8
2016-12-04T00:34:45.977Z,20.73
2016-12-04T00:35:26.489Z,20.82
2016-12-04T00:36:07.026Z,20.74
2016-12-04T00:36:47.558Z,20.77
2016-12-04T00:37:28.094Z,20.7
2016-12-04T00:38:08.615Z,20.74
2016-12-04T00:38:49.121Z,20.7
2016-12-04T00:39:29.636Z,20.71
2016-12-04T00:40:10.173Z,20.71
2016-12-04T00:40:50.682Z,20.75
2016-12-04T00:41:31.207Z,20.75
2016-12-04T00:42:11.773Z,20.83
2016-12-04T00:42:52.342Z,20.78
2016-12-04T00:43:32.867Z,20.73
2016-12-04T00:44:13.384Z,20.77
2016-12-04T00:44:53.904Z,20.73
2016-12-04T00:45:34.451Z,20.67
2016-12-04T00:46:15.015Z,20.75
2016-12-04T00:46:55.550Z,20.77
2016-12-04T00:47:36.085Z,20.71
2016-12-04T00:48:16.641Z,20.71
2016-12-04T00:48:57.169Z,20.83
2016-12-04T00:49:37.695Z,20.73
2016-12-04T00:50:18.223Z,20.77
2016-12-04T00:50:58.734Z,20.73
2016-12-04T00:51:39.261Z,20.75
2016-12-04T00:52:19.823Z,20.68
2016-12-04T00:53:00.357Z,20.7
2016-12-04T00:53:40.866Z,20.74
2016-12-04T00:54:21.402Z,20.68
2016-12-04T00:55:01.925Z,20.71
2016-12-04T00:55:42.450Z,20.71
2016-12-04T00:56:22.972Z,20.77
2016-12-04T00:57:03.487Z,20.77
2016-12-04T00:57:44.030Z,20.73
2016-12-04T00:58:24.584Z,20.75
2016-12-04T00:59:05.126Z,20.7
2016-12-04T00:59:45.695Z,20.77
2016-12-04T01:00:26.237Z,20.75
2016-12-04T01:01:06.753Z,20.7
2016-12-04T01:01:47.320Z,20.75
2016-12-04T01:02:27.874Z,20.7
2016-12-04T01:03:08.393Z,20.67
2016-12-04T01:03:48.974Z,20.77
2016-12-04T01:04:29.513Z,20.77
2016-12-04T01:05:10.016Z,20.73
2016-12-04T01:05:50.566Z,20.77
2016-12-04T01:06:31.112Z,20.75
2016-12-04T01:07:11.624Z,20.68
2016-12-04T01:07:52.189Z,20.75
2016-12-04T01:08:32.715Z,20.74
2016-12-04T01:09:13.238Z,20.77
2016-12-04T01:09:53.795Z,20.75
2016-12-04T01:10:34.326Z,20.73
2016-12-04T01:11:14.844Z,20.77
2016-12-04T01:11:55.384Z,20.73
2016-12-04T01:12:35.945Z,20.75
2016-12-04T01:13:16.481Z,20.71
2016-12-04T01:13:57.032Z,20.75
2016-12-04T01:14:37.548Z,20.74
2016-12-04T01:15:18.070Z,20.68
2016-12-04T01:15:58.604Z,20.77
2016-12-04T01:16:39.166Z,20.71
2016-12-04T01:17:19.688Z,20.77
2016-12-04T01:18:00.212Z,20.66
2016-12-04T01:18:40.763Z,20.73
2016-12-04T01:19:21.305Z,20.74
2016-12-04T01:20:01.889Z,20.74
2016-12-04T01:20:42.357Z,20.78
2016-12-04T01:21:22.891Z,20.74
2016-12-04T01:22:03.459Z,20.77
2016-12-04T01:22:43.952Z,20.77
2016-12-04T01:23:24.497Z,20.77
2016-12-04T01:24:05.033Z,20.74
2016-12-04T01:24:45.537Z,20.77
2016-12-04T01:25:26.081Z,20.77
2016-12-04T01:26:06.630Z,20.74
2016-12-04T01:26:47.151Z,20.74
2016-12-04T01:27:27.702Z,20.71
2016-12-04T01:28:08.232Z,20.75
2016-12-04T01:28:48.754Z,20.73
2016-12-04T01:29:29.285Z,20.74
2016-12-04T01:30:09.848Z,20.73
2016-12-04T01:30:50.365Z,20.7
2016-12-04T01:31:30.920Z,20.68
2016-12-04T01:32:11.428Z,20.75
2016-12-04T01:32:51.971Z,20.77
2016-12-04T01:33:32.496Z,20.77
2016-12-04T01:34:13.046Z,20.7
2016-12-04T01:34:53.557Z,20.77
2016-12-04T01:35:34.098Z,20.71
2016-12-04T01:36:14.614Z,20.77
2016-12-04T01:36:55.141Z,20.75
2016-12-04T01:37:35.673Z,20.7
2016-12-04T01:38:16.193Z,20.77
2016-12-04T01:38:56.798Z,20.71
2016-12-04T01:39:37.362Z,20.68
2016-12-04T01:40:17.912Z,20.78
2016-12-04T01:40:58.395Z,20.74
2016-12-04T01:41:38.914Z,20.7
2016-12-04T01:42:19.450Z,20.74
2016-12-04T01:42:59.960Z,20.75
2016-12-04T01:43:40.489Z,20.74
2016-12-04T01:44:21.023Z,20.73
2016-12-04T01:45:01.563Z,20.64
2016-12-04T01:45:42.094Z,20.66
2016-12-04T01:46:22.680Z,20.82
2016-12-04T01:47:03.203Z,20.63
2016-12-04T01:47:43.763Z,20.75
2016-12-04T01:48:24.269Z,20.63
2016-12-04T01:49:04.795Z,20.73
2016-12-04T01:49:45.336Z,20.73
2016-12-04T01:50:25.902Z,20.77
2016-12-04T01:51:06.434Z,20.74
2016-12-04T01:51:46.955Z,20.7
2016-12-04T01:52:27.477Z,20.71
2016-12-04T01:53:08.003Z,20.66
2016-12-04T01:53:48.534Z,20.71
2016-12-04T01:54:29.058Z,20.64
2016-12-04T01:55:09.608Z,20.64
2016-12-04T01:55:50.094Z,20.68
2016-12-04T01:56:30.637Z,20.63
2016-12-04T01:57:11.175Z,20.67
2016-12-04T01:57:51.711Z,20.6
2016-12-04T01:58:32.231Z,20.6
2016-12-04T01:59:12.762Z,20.75
2016-12-04T01:59:53.278Z,20.6
2016-12-04T02:00:33.810Z,20.68
2016-12-04T02:01:14.324Z,20.74
2016-12-04T02:01:54.856Z,20.63
2016-12-04T02:02:35.399Z,20.74
2016-12-04T02:03:15.919Z,20.73
2016-12-04T02:03:56.445Z,20.66
2016-12-04T02:04:37.014Z,20.64
2016-12-04T02:05:17.536Z,20.66
2016-12-04T02:05:58.064Z,20.67
2016-12-04T02:06:38.582Z,20.64
2016-12-04T02:07:19.149Z,20.64
2016-12-04T02:07:59.699Z,20.71
2016-12-04T02:08:40.249Z,20.68
2016-12-04T02:09:20.793Z,20.63
2016-12-04T02:10:01.326Z,20.78
2016-12-04T02:10:41.809Z,20.73
2016-12-04T02:11:22.348Z,20.66
2016-12-04T02:12:02.867Z,20.66
2016-12-04T02:12:43.406Z,20.64
2016-12-04T02:13:23.923Z,20.66
2016-12-04T02:14:04.440Z,20.64
2016-12-04T02:14:44.990Z,20.64
2016-12-04T02:15:25.518Z,20.64
2016-12-04T02:16:06.064Z,20.64
2016-12-04T02:16:46.561Z,20.66
2016-12-04T02:17:27.097Z,20.7
2016-12-04T02:18:07.641Z,20.66
2016-12-04T02:18:48.161Z,20.68
2016-12-04T02:19:28.714Z,20.68
2016-12-04T02:20:09.230Z,20.68
2016-12-04T02:20:49.774Z,20.75
2016-12-04T02:21:30.331Z,20.6
2016-12-04T02:22:10.854Z,20.66
2016-12-04T02:22:51.392Z,20.63
2016-12-04T02:23:31.944Z,20.64
2016-12-04T02:24:12.464Z,20.64
2016-12-04T02:24:53.013Z,20.6
2016-12-04T02:25:33.560Z,20.67
2016-12-04T02:26:14.101Z,20.67
2016-12-04T02:26:54.621Z,20.71
2016-12-04T02:27:35.147Z,20.68
2016-12-04T02:28:15.703Z,20.64
2016-12-04T02:28:56.243Z,20.66
2016-12-04T02:29:36.807Z,20.66
2016-12-04T02:30:17.326Z,20.66
2016-12-04T02:30:57.858Z,20.68
2016-12-04T02:31:38.407Z,20.67
2016-12-04T02:32:18.961Z,20.63
2016-12-04T02:32:59.512Z,20.64
2016-12-04T02:33:40.061Z,20.66
2016-12-04T02:34:20.664Z,20.6
2016-12-04T02:35:01.192Z,20.66
2016-12-04T02:35:41.721Z,20.68
2016-12-04T02:36:22.214Z,20.66
2016-12-04T02:37:02.776Z,20.66
2016-12-04T02:37:43.285Z,20.67
2016-12-04T02:38:23.836Z,20.66
2016-12-04T02:39:04.366Z,20.6
2016-12-04T02:39:44.880Z,20.68
2016-12-04T02:40:25.417Z,20.64
2016-12-04T02:41:05.953Z,20.66
2016-12-04T02:41:46.467Z,20.7
2016-12-04T02:42:26.990Z,20.67
2016-12-04T02:43:07.531Z,20.64
2016-12-04T02:43:48.069Z,20.71
2016-12-04T02:44:28.623Z,20.66
2016-12-04T02:45:09.124Z,20.63
2016-12-04T02:45:49.674Z,20.7
2016-12-04T02:46:30.180Z,20.64
2016-12-04T02:47:10.712Z,20.66
2016-12-04T02:47:51.238Z,20.64
2016-12-04T02:48:31.767Z,20.6
2016-12-04T02:49:12.321Z,20.67
2016-12-04T02:49:52.854Z,20.68
2016-12-04T02:50:33.376Z,20.64
2016-12-04T02:51:13.892Z,20.73
2016-12-04T02:51:54.460Z,20.63
2016-12-04T02:52:34.999Z,20.67
2016-12-04T02:53:15.543Z,20.68
2016-12-04T02:53:56.070Z,20.71
2016-12-04T02:54:36.637Z,20.66
2016-12-04T02:55:17.129Z,20.67
2016-12-04T02:55:57.664Z,20.66
2016-12-04T02:56:38.222Z,20.67
2016-12-04T02:57:18.739Z,20.63
2016-12-04T02:57:59.282Z,20.67
2016-12-04T02:58:39.782Z,20.67
2016-12-04T02:59:20.332Z,20.67
2016-12-04T03:00:00.872Z,20.66
2016-12-04T03:00:41.427Z,20.7
2016-12-04T03:01:21.976Z,20.64
2016-12-04T03:02:02.466Z,20.63
2016-12-04T03:02:43.022Z,20.67
2016-12-04T03:03:23.533Z,20.66
2016-12-04T03:04:04.056Z,20.67
2016-12-04T03:04:44.581Z,20.64
2016-12-04T03:05:25.110Z,20.63
2016-12-04T03:06:05.634Z,20.67
2016-12-04T03:06:46.147Z,20.64
2016-12-04T03:07:26.696Z,20.71
2016-12-04T03:08:07.227Z,20.64
2016-12-04T03:08:47.748Z,20.63
2016-12-04T03:09:28.294Z,20.66
2016-12-04T03:10:08.822Z,20.64
2016-12-04T03:10:49.349Z,20.67
2016-12-04T03:11:29.886Z,20.64
2016-12-04T03:12:10.395Z,20.64
2016-12-04T03:12:50.916Z,20.71
2016-12-04T03:13:31.515Z,20.66
2016-12-04T03:14:12.033Z,20.63
2016-12-04T03:14:52.554Z,20.63
2016-12-04T03:15:33.065Z,20.66
2016-12-04T03:16:13.593Z,20.66
2016-12-04T03:16:54.128Z,20.68
2016-12-04T03:17:34.663Z,20.66
2016-12-04T03:18:15.205Z,20.6
2016-12-04T03:18:55.745Z,20.67
2016-12-04T03:19:36.261Z,20.64
2016-12-04T03:20:16.791Z,20.66
2016-12-04T03:20:57.313Z,20.71
2016-12-04T03:21:37.851Z,20.66
2016-12-04T03:22:18.400Z,20.68
2016-12-04T03:22:58.941Z,20.64
2016-12-04T03:23:39.481Z,20.67
2016-12-04T03:24:20.050Z,20.67
2016-12-04T03:25:00.597Z,20.66
2016-12-04T03:25:41.143Z,20.68
2016-12-04T03:26:21.671Z,20.7
2016-12-04T03:27:02.210Z,20.64
2016-12-04T03:27:42.742Z,20.67
2016-12-04T03:28:23.263Z,20.64
2016-12-04T03:29:03.799Z,20.64
2016-12-04T03:29:44.334Z,20.7
2016-12-04T03:30:24.874Z,20.68
2016-12-04T03:31:05.420Z,20.7
2016-12-04T03:31:45.956Z,20.7
2016-12-04T03:32:26.483Z,20.7
2016-12-04T03:33:06.989Z,20.64
2016-12-04T03:33:47.507Z,20.68
2016-12-04T03:34:28.092Z,20.66
2016-12-04T03:35:08.574Z,20.7
2016-12-04T03:35:49.110Z,20.63
2016-12-04T03:36:29.680Z,20.68
2016-12-04T03:37:10.213Z,20.66
2016-12-04T03:37:50.750Z,20.67
2016-12-04T03:38:31.283Z,20.63
2016-12-04T03:39:11.800Z,20.63
2016-12-04T03:39:52.353Z,20.67
2016-12-04T03:40:32.912Z,20.66
2016-12-04T03:41:13.454Z,20.63
2016-12-04T03:41:53.982Z,20.66
2016-12-04T03:42:34.534Z,20.63
2016-12-04T03:43:15.060Z,20.67
2016-12-04T03:43:55.616Z,20.66
2016-12-04T03:44:36.153Z,20.63
2016-12-04T03:45:16.690Z,20.64
2016-12-04T03:45:57.211Z,20.63
2016-12-04T03:46:37.776Z,20.66
2016-12-04T03:47:18.309Z,20.67
2016-12-04T03:47:58.851Z,20.63
2016-12-04T03:48:39.400Z,20.7
2016-12-04T03:49:19.957Z,20.59
2016-12-04T03:50:00.501Z,20.68
2016-12-04T03:50:41.032Z,20.64
2016-12-04T03:51:21.531Z,20.63
2016-12-04T03:52:02.061Z,20.67
2016-12-04T03:52:42.652Z,20.63
2016-12-04T03:53:23.188Z,20.64
2016-12-04T03:54:03.769Z,20.7
2016-12-04T03:54:44.340Z,20.64
2016-12-04T03:55:24.882Z,20.68
2016-12-04T03:56:05.416Z,20.64
2016-12-04T03:56:45.989Z,20.68
2016-12-04T03:57:26.517Z,20.6
2016-12-04T03:58:07.030Z,20.6
2016-12-04T03:58:47.541Z,20.67
2016-12-04T03:59:28.086Z,20.63
2016-12-04T04:00:08.632Z,20.63
2016-12-04T04:00:49.183Z,20.63
2016-12-04T04:01:29.763Z,20.63
2016-12-04T04:02:10.237Z,20.67
2016-12-04T04:02:50.770Z,20.6
2016-12-04T04:03:31.316Z,20.58
2016-12-04T04:04:11.864Z,20.64
2016-12-04T04:04:52.395Z,20.55
2016-12-04T04:05:32.961Z,20.64
2016-12-04T04:06:13.579Z,20.68
2016-12-04T04:06:54.123Z,20.66
2016-12-04T04:07:34.693Z,20.63
2016-12-04T04:08:15.228Z,20.6
2016-12-04T04:08:55.743Z,20.59
2016-12-04T04:09:36.284Z,20.64
2016-12-04T04:10:16.849Z,20.68
2016-12-04T04:10:57.362Z,20.64
2016-12-04T04:11:37.916Z,20.73
2016-12-04T04:12:18.450Z,20.66
2016-12-04T04:12:58.988Z,20.66
2016-12-04T04:13:39.511Z,20.63
2016-12-04T04:14:20.033Z,20.68
2016-12-04T04:15:00.551Z,20.64
2016-12-04T04:15:41.095Z,20.68
2016-12-04T04:16:21.622Z,20.68
2016-12-04T04:17:02.183Z,20.64
2016-12-04T04:17:42.736Z,20.66
2016-12-04T04:18:23.313Z,20.67
2016-12-04T04:19:03.804Z,20.68
2016-12-04T04:19:44.327Z,20.66
2016-12-04T04:20:24.878Z,20.7
2016-12-04T04:21:05.394Z,20.63
2016-12-04T04:21:45.927Z,20.7
2016-12-04T04:22:26.450Z,20.64
2016-12-04T04:23:06.972Z,20.67
2016-12-04T04:23:47.514Z,20.64
2016-12-04T04:24:28.033Z,20.63
2016-12-04T04:25:08.582Z,20.59
2016-12-04T04:25:49.139Z,20.56
2016-12-04T04:26:29.668Z,20.64
2016-12-04T04:27:10.224Z,20.59
2016-12-04T04:27:50.772Z,20.68
2016-12-04T04:28:31.335Z,20.64
2016-12-04T04:29:11.870Z,20.68
2016-12-04T04:29:52.384Z,20.7
2016-12-04T04:30:32.912Z,20.68
2016-12-04T04:31:13.408Z,20.67
2016-12-04T04:31:53.945Z,20.67
2016-12-04T04:32:34.453Z,20.63
2016-12-04T04:33:15.014Z,20.64
2016-12-04T04:33:55.513Z,20.63
2016-12-04T04:34:36.038Z,20.64
2016-12-04T04:35:16.584Z,20.55
2016-12-04T04:35:57.104Z,20.58
2016-12-04T04:36:37.644Z,20.53
2016-12-04T04:37:18.138Z,20.55
2016-12-04T04:37:58.651Z,20.67
2016-12-04T04:38:39.160Z,20.6
2016-12-04T04:39:19.699Z,20.6
2016-12-04T04:40:00.232Z,20.58
2016-12-04T04:40:40.752Z,20.6
2016-12-04T04:41:21.283Z,20.63
2016-12-04T04:42:01.840Z,20.63
2016-12-04T04:42:42.392Z,20.59
2016-12-04T04:43:22.913Z,20.6
2016-12-04T04:44:03.458Z,20.58
2016-12-04T04:44:44.008Z,20.58
2016-12-04T04:45:24.555Z,20.66
2016-12-04T04:46:05.096Z,20.6
2016-12-04T04:46:45.677Z,20.59
2016-12-04T04:47:26.211Z,20.6
2016-12-04T04:48:06.764Z,20.63
2016-12-04T04:48:47.310Z,20.6
2016-12-04T04:49:27.809Z,20.6
2016-12-04T04:50:08.335Z,20.66
2016-12-04T04:50:48.881Z,20.63
2016-12-04T04:51:29.398Z,20.6
2016-12-04T04:52:09.954Z,20.63
2016-12-04T04:52:50.475Z,20.63
2016-12-04T04:53:30.993Z,20.58
2016-12-04T04:54:11.513Z,20.6
2016-12-04T04:54:52.042Z,20.7
2016-12-04T04:55:32.581Z,20.58
2016-12-04T04:56:13.084Z,20.59
2016-12-04T04:56:53.620Z,20.59
2016-12-04T04:57:34.166Z,20.66
2016-12-04T04:58:14.720Z,20.58
2016-12-04T04:58:55.259Z,20.55
2016-12-04T04:59:35.816Z,20.64
2016-12-04T05:00:16.392Z,20.58
2016-12-04T05:00:56.936Z,20.58
2016-12-04T05:01:37.484Z,20.6
2016-12-04T05:02:18.026Z,20.66
2016-12-04T05:02:58.571Z,20.63
2016-12-04T05:03:39.150Z,20.59
2016-12-04T05:04:19.656Z,20.58
2016-12-04T05:05:00.187Z,20.58
2016-12-04T05:05:40.729Z,20.6
2016-12-04T05:06:21.272Z,20.55
2016-12-04T05:07:01.797Z,20.6
2016-12-04T05:07:42.337Z,20.58
2016-12-04T05:08:22.875Z,20.52
2016-12-04T05:09:03.395Z,20.55
2016-12-04T05:09:43.922Z,20.5
2016-12-04T05:10:24.445Z,20.56
2016-12-04T05:11:04.971Z,20.55
2016-12-04T05:11:45.493Z,20.52
2016-12-04T05:12:26.018Z,20.55
2016-12-04T05:13:06.602Z,20.49
2016-12-04T05:13:47.147Z,20.59
2016-12-04T05:14:27.659Z,20.63
2016-12-04T05:15:08.180Z,20.58
2016-12-04T05:15:48.703Z,20.6
2016-12-04T05:16:29.263Z,20.6
2016-12-04T05:17:09.767Z,20.67
2016-12-04T05:17:50.311Z,20.6
2016-12-04T05:18:30.835Z,20.64
2016-12-04T05:19:11.394Z,20.59
2016-12-04T05:19:51.924Z,20.6
2016-12-04T05:20:32.506Z,20.59
2016-12-04T05:21:13.058Z,20.64
2016-12-04T05:21:53.621Z,20.59
2016-12-04T05:22:34.124Z,20.64
2016-12-04T05:23:14.681Z,20.63
2016-12-04T05:23:55.225Z,20.67
2016-12-04T05:24:35.765Z,20.55
2016-12-04T05:25:16.320Z,20.6
2016-12-04T05:25:56.865Z,20.58
2016-12-04T05:26:37.420Z,20.53
2016-12-04T05:27:17.944Z,20.55
2016-12-04T05:27:58.493Z,20.68
2016-12-04T05:28:39.044Z,20.63
2016-12-04T05:29:19.570Z,20.55
2016-12-04T05:30:00.108Z,20.53
2016-12-04T05:30:40.635Z,20.6
2016-12-04T05:31:21.175Z,20.63
2016-12-04T05:32:01.695Z,20.67
2016-12-04T05:32:42.267Z,20.55
2016-12-04T05:33:22.738Z,20.5
2016-12-04T05:34:03.273Z,20.55
2016-12-04T05:34:43.794Z,20.59
2016-12-04T05:35:24.308Z,20.58
2016-12-04T05:36:04.825Z,20.6
2016-12-04T05:36:45.352Z,20.6
2016-12-04T05:37:25.864Z,20.53
2016-12-04T05:38:06.385Z,20.59
2016-12-04T05:38:46.956Z,20.63
2016-12-04T05:39:27.483Z,20.6
2016-12-04T05:40:08.013Z,20.53
2016-12-04T05:40:48.559Z,20.55
2016-12-04T05:41:29.091Z,20.66
2016-12-04T05:42:09.684Z,20.58
2016-12-04T05:42:50.212Z,20.64
2016-12-04T05:43:30.727Z,20.64
2016-12-04T05:44:11.247Z,20.55
2016-12-04T05:44:51.802Z,20.56
2016-12-04T05:45:32.304Z,20.6
2016-12-04T05:46:12.812Z,20.6
2016-12-04T05:46:53.330Z,20.56
2016-12-04T05:47:33.858Z,20.59
2016-12-04T05:48:14.355Z,20.67
2016-12-04T05:48:54.878Z,20.53
2016-12-04T05:49:35.423Z,20.5
2016-12-04T05:50:15.919Z,20.53
2016-12-04T05:50:56.450Z,20.55
2016-12-04T05:51:36.971Z,20.55
2016-12-04T05:52:17.517Z,20.58
2016-12-04T05:52:58.018Z,20.58
2016-12-04T05:53:38.544Z,20.59
2016-12-04T05:54:19.093Z,20.58
2016-12-04T05:54:59.573Z,20.53
2016-12-04T05:55:40.094Z,20.55
2016-12-04T05:56:20.646Z,20.6
2016-12-04T05:57:01.180Z,20.56
2016-12-04T05:57:41.701Z,20.53
2016-12-04T05:58:22.232Z,20.52
2016-12-04T05:59:02.744Z,20.52
2016-12-04T05:59:43.288Z,20.52
2016-12-04T06:00:23.816Z,20.58
2016-12-04T06:01:04.338Z,20.59
2016-12-04T06:01:44.896Z,20.48
2016-12-04T06:02:25.394Z,20.56
2016-12-04T06:03:05.936Z,20.53
2016-12-04T06:03:46.459Z,20.48
2016-12-04T06:04:27.008Z,20.52
2016-12-04T06:05:07.535Z,20.52
2016-12-04T06:05:48.037Z,20.55
2016-12-04T06:06:28.571Z,20.64
2016-12-04T06:07:09.126Z,20.55
2016-12-04T06:07:49.649Z,20.66
2016-12-04T06:08:30.169Z,20.67
2016-12-04T06:09:10.705Z,20.64
2016-12-04T06:09:51.237Z,20.58
2016-12-04T06:10:31.768Z,20.56
2016-12-04T06:11:12.278Z,20.55
2016-12-04T06:11:52.802Z,20.55
2016-12-04T06:12:33.344Z,20.55
2016-12-04T06:13:13.877Z,20.53
2016-12-04T06:13:54.399Z,20.59
2016-12-04T06:14:34.914Z,20.52
2016-12-04T06:15:15.437Z,20.5
2016-12-04T06:15:55.944Z,20.55
2016-12-04T06:16:36.478Z,20.56
2016-12-04T06:17:17.013Z,20.5
2016-12-04T06:17:57.536Z,20.5
2016-12-04T06:18:38.049Z,20.56
2016-12-04T06:19:18.576Z,20.53
2016-12-04T06:19:59.120Z,20.6
2016-12-04T06:20:39.637Z,20.52
2016-12-04T06:21:20.153Z,20.59
2016-12-04T06:22:00.669Z,20.53
2016-12-04T06:22:41.203Z,20.53
2016-12-04T06:23:21.725Z,20.53
2016-12-04T06:24:02.250Z,20.55
2016-12-04T06:24:42.769Z,20.48
2016-12-04T06:25:23.323Z,20.56
2016-12-04T06:26:03.846Z,20.55
2016-12-04T06:26:44.380Z,20.55
2016-12-04T06:27:24.912Z,20.55
2016-12-04T06:28:05.461Z,20.53
2016-12-04T06:28:46.034Z,20.53
2016-12-04T06:29:26.562Z,20.53
2016-12-04T06:30:07.085Z,20.5
2016-12-04T06:30:47.608Z,20.53
2016-12-04T06:31:28.126Z,20.53
2016-12-04T06:32:08.666Z,20.48
2016-12-04T06:32:49.192Z,20.52
2016-12-04T06:33:29.721Z,20.55
2016-12-04T06:34:10.256Z,20.53
2016-12-04T06:34:50.789Z,20.66
2016-12-04T06:35:31.284Z,20.55
2016-12-04T06:36:11.823Z,20.56
2016-12-04T06:36:52.380Z,20.56
2016-12-04T06:37:32.905Z,20.58
2016-12-04T06:38:13.444Z,20.59
2016-12-04T06:38:53.957Z,20.52
2016-12-04T06:39:34.491Z,20.66
2016-12-04T06:40:15.027Z,20.59
2016-12-04T06:40:55.555Z,20.53
2016-12-04T06:41:36.077Z,20.52
2016-12-04T06:42:16.609Z,20.56
2016-12-04T06:42:57.130Z,20.59
2016-12-04T06:43:37.686Z,20.53
2016-12-04T06:44:18.205Z,20.49
2016-12-04T06:44:58.752Z,20.56
2016-12-04T06:45:39.288Z,20.59
2016-12-04T06:46:19.880Z,20.56
2016-12-04T06:47:00.402Z,20.53
2016-12-04T06:47:40.955Z,20.58
2016-12-04T06:48:21.469Z,20.56
2016-12-04T06:49:01.988Z,20.58
2016-12-04T06:49:42.517Z,20.49
2016-12-04T06:50:23.054Z,20.56
2016-12-04T06:51:03.594Z,20.53
2016-12-04T06:51:44.138Z,20.56
2016-12-04T06:52:24.684Z,20.6
2016-12-04T06:53:05.237Z,20.63
2016-12-04T06:53:45.770Z,20.5
2016-12-04T06:54:26.293Z,20.55
2016-12-04T06:55:06.790Z,20.55
2016-12-04T06:55:47.309Z,20.52
2016-12-04T06:56:27.813Z,20.52
2016-12-04T06:57:08.329Z,20.58
2016-12-04T06:57:48.869Z,20.58
2016-12-04T06:58:29.398Z,20.53
2016-12-04T06:59:09.944Z,20.56
2016-12-04T06:59:50.495Z,20.49
2016-12-04T07:00:30.999Z,20.64
2016-12-04T07:01:11.553Z,20.52
2016-12-04T07:01:52.095Z,20.53
2016-12-04T07:02:32.604Z,20.59
2016-12-04T07:03:13.159Z,20.64
2016-12-04T07:03:53.726Z,20.66
2016-12-04T07:04:34.261Z,20.64
2016-12-04T07:05:14.954Z,20.55
2016-12-04T07:05:55.514Z,20.66
2016-12-04T07:06:36.065Z,20.66
2016-12-04T07:07:16.623Z,20.66
2016-12-04T07:07:57.210Z,20.64
2016-12-04T07:08:37.731Z,20.6
2016-12-04T07:09:18.319Z,20.56
2016-12-04T07:09:58.845Z,20.56
2016-12-04T07:10:39.439Z,20.55
2016-12-04T07:11:19.969Z,20.56
2016-12-04T07:12:00.495Z,20.59
2016-12-04T07:12:41.034Z,20.53
2016-12-04T07:13:21.577Z,20.49
2016-12-04T07:14:02.106Z,20.52
2016-12-04T07:14:42.638Z,20.58
2016-12-04T07:15:23.139Z,20.58
2016-12-04T07:16:03.668Z,20.53
2016-12-04T07:16:44.160Z,20.56
2016-12-04T07:17:24.689Z,20.63
2016-12-04T07:18:05.245Z,20.6
2016-12-04T07:18:45.754Z,20.59
2016-12-04T07:19:26.313Z,20.59
2016-12-04T07:20:06.848Z,20.53
2016-12-04T07:20:47.380Z,20.6
2016-12-04T07:21:27.914Z,20.58
2016-12-04T07:22:08.495Z,20.63
2016-12-04T07:22:49.019Z,20.59
2016-12-04T07:23:29.569Z,20.59
2016-12-04T07:24:10.142Z,20.55
2016-12-04T07:24:50.671Z,20.64
2016-12-04T07:25:31.197Z,20.58
2016-12-04T07:26:11.728Z,20.64
2016-12-04T07:26:52.250Z,20.6
2016-12-04T07:27:32.795Z,20.44
2016-12-04T07:28:13.332Z,19.79
2016-12-04T07:28:53.881Z,19
2016-12-04T07:29:34.397Z,18.53
2016-12-04T07:30:14.950Z,18.36
2016-12-04T07:30:55.527Z,18.03
2016-12-04T07:31:36.121Z,18.02
2016-12-04T07:32:16.703Z,18
2016-12-04T07:32:57.260Z,18
2016-12-04T07:33:37.762Z,17.84
2016-12-04T07:34:18.388Z,17.56
2016-12-04T07:34:58.918Z,17.68
2016-12-04T07:35:39.436Z,17.57
2016-12-04T07:36:19.977Z,17.54
2016-12-04T07:37:00.533Z,17.42
2016-12-04T07:37:41.635Z,17.37
2016-12-04T07:38:22.191Z,17.34
2016-12-04T07:39:02.793Z,17.3
2016-12-04T07:39:43.357Z,17.16
2016-12-04T07:40:23.861Z,17.04
2016-12-04T07:41:04.386Z,17.09
2016-12-04T07:41:44.915Z,16.95
2016-12-04T07:42:25.460Z,16.97
2016-12-04T07:43:05.973Z,16.87
2016-12-04T07:43:46.489Z,16.92
2016-12-04T07:44:27.013Z,16.87
2016-12-04T07:45:07.538Z,16.95
2016-12-04T07:45:48.068Z,16.92
2016-12-04T07:46:28.600Z,16.95
2016-12-04T07:47:09.126Z,17.12
2016-12-04T07:47:49.664Z,17.63
2016-12-04T07:48:30.179Z,17.97
2016-12-04T07:49:10.705Z,18.26
2016-12-04T07:49:51.259Z,18.52
2016-12-04T07:50:31.822Z,18.74
2016-12-04T07:51:12.414Z,19.05
2016-12-04T07:51:52.919Z,19.26
2016-12-04T07:52:33.406Z,19.35
2016-12-04T07:53:13.950Z,19.45
2016-12-04T07:53:54.501Z,19.63
2016-12-04T07:54:35.025Z,19.75
2016-12-04T07:55:15.566Z,19.84
2016-12-04T07:55:56.084Z,19.84
2016-12-04T07:56:36.591Z,19.97
2016-12-04T07:57:17.123Z,20.04
2016-12-04T07:57:57.645Z,20.08
2016-12-04T07:58:38.168Z,20.08
2016-12-04T07:59:18.690Z,20.12
2016-12-04T07:59:59.200Z,20.18
2016-12-04T08:00:39.730Z,20.21
2016-12-04T08:01:20.242Z,20.11
2016-12-04T08:02:00.761Z,20.19
2016-12-04T08:02:41.319Z,20.18
2016-12-04T08:03:21.848Z,20.24
2016-12-04T08:04:02.397Z,20.3
2016-12-04T08:04:42.941Z,20.19
2016-12-04T08:05:23.500Z,20.21
2016-12-04T08:06:04.037Z,20.32
2016-12-04T08:06:44.607Z,20.27
2016-12-04T08:07:25.152Z,20.34
2016-12-04T08:08:05.681Z,20.34
2016-12-04T08:08:46.185Z,20.27
2016-12-04T08:09:26.697Z,20.34
2016-12-04T08:10:07.213Z,20.32
2016-12-04T08:10:47.751Z,20.37
2016-12-04T08:11:28.284Z,20.36
2016-12-04T08:12:08.803Z,20.37
2016-12-04T08:12:49.330Z,20.26
2016-12-04T08:13:29.887Z,20.24
2016-12-04T08:14:10.441Z,20.32
2016-12-04T08:14:50.939Z,20.33
2016-12-04T08:15:31.460Z,20.3
2016-12-04T08:16:12.016Z,20.32
2016-12-04T08:16:52.540Z,20.29
2016-12-04T08:17:33.039Z,20.34
2016-12-04T08:18:13.585Z,20.3
2016-12-04T08:18:54.091Z,20.34
2016-12-04T08:19:41.335Z,20.29
2016-12-04T08:20:21.862Z,20.32
2016-12-04T08:21:02.365Z,20.34
2016-12-04T08:21:42.883Z,20.34
2016-12-04T08:22:23.417Z,20.39
2016-12-04T08:23:03.947Z,20.3
2016-12-04T08:23:44.504Z,20.33
2016-12-04T08:24:25.019Z,20.34
2016-12-04T08:25:05.546Z,20.4
2016-12-04T08:25:46.080Z,20.34
2016-12-04T08:26:26.608Z,20.42
2016-12-04T08:27:07.143Z,20.44
2016-12-04T08:27:47.670Z,20.37
2016-12-04T08:28:28.176Z,20.36
2016-12-04T08:29:08.695Z,20.34
2016-12-04T08:29:49.272Z,20.46
2016-12-04T08:30:29.757Z,20.34
2016-12-04T08:31:10.291Z,20.44
2016-12-04T08:31:50.817Z,20.39
2016-12-04T08:32:31.324Z,20.36
2016-12-04T08:33:11.887Z,20.44
2016-12-04T08:33:52.397Z,20.39
2016-12-04T08:34:32.948Z,20.44
2016-12-04T08:35:13.478Z,20.42
2016-12-04T08:35:54.012Z,20.39
2016-12-04T08:36:34.520Z,20.39
2016-12-04T08:37:15.039Z,20.48
2016-12-04T08:37:55.585Z,20.36
2016-12-04T08:38:36.154Z,20.49
2016-12-04T08:39:16.674Z,20.46
2016-12-04T08:39:57.236Z,20.49
2016-12-04T08:40:37.782Z,20.44
2016-12-04T08:41:18.318Z,20.49
2016-12-04T08:41:58.854Z,20.44
2016-12-04T08:42:39.396Z,20.4
2016-12-04T08:43:19.958Z,20.39
2016-12-04T08:44:00.523Z,20.44
2016-12-04T08:44:41.057Z,20.48